Wetterdaten: Woche 18.09.06 - 24.09.06 (KW38)
Datum Zeit Temperatur Luftfeuchte Luftdruck Niederschlag Windrichtung Wind
18.09.2006 00:00 15,0 C 100 % 1013 hPa 0,0 l/m S 4,1 km/h (1 Bft)
18.09.2006 01:00 14,8 C 100 % 1013 hPa 0,0 l/m S 7,0 km/h (2 Bft)
18.09.2006 02:00 14,7 C 100 % 1013 hPa 0,0 l/m S 6,1 km/h (2 Bft)
18.09.2006 03:00 14,7 C 100 % 1013 hPa 0,0 l/m S 4,8 km/h (1 Bft)
18.09.2006 04:00 14,7 C 100 % 1013 hPa 0,0 l/m S 3,2 km/h (1 Bft)
18.09.2006 05:00 14,6 C 100 % 1013 hPa 0,0 l/m S-SW 5,0 km/h (1 Bft)
18.09.2006 06:00 14,5 C 100 % 1013 hPa 0,0 l/m S 3,9 km/h (1 Bft)
18.09.2006 07:00 14,5 C 100 % 1014 hPa 0,0 l/m S 3,0 km/h (1 Bft)
18.09.2006 08:00 14,7 C 100 % 1014 hPa 0,0 l/m W-SW 1,1 km/h (1 Bft)
18.09.2006 09:00 15,1 C 99 % 1014 hPa 0,0 l/m S 1,9 km/h (1 Bft)
18.09.2006 10:00 15,5 C 95 % 1014 hPa 0,0 l/m S 6,9 km/h (2 Bft)
18.09.2006 11:00 16,2 C 92 % 1014 hPa 0,0 l/m S-SW 8,6 km/h (2 Bft)
18.09.2006 12:00 16,5 C 89 % 1014 hPa 0,0 l/m SW 6,9 km/h (2 Bft)
18.09.2006 13:00 16,6 C 89 % 1015 hPa 0,0 l/m S 9,1 km/h (2 Bft)
18.09.2006 14:00 17,5 C 85 % 1015 hPa 0,0 l/m W-SW 8,8 km/h (2 Bft)
18.09.2006 15:00 16,7 C 92 % 1015 hPa 1,0 l/m W 7,7 km/h (2 Bft)
18.09.2006 16:00 15,7 C 93 % 1015 hPa 0,0 l/m W 11,3 km/h (2 Bft)
18.09.2006 17:00 15,3 C 91 % 1015 hPa 0,0 l/m W 10,1 km/h (2 Bft)
18.09.2006 18:00 15,0 C 91 % 1016 hPa 0,0 l/m W 8,0 km/h (2 Bft)
18.09.2006 19:00 14,5 C 95 % 1016 hPa 0,0 l/m W-SW 6,9 km/h (2 Bft)
18.09.2006 20:00 14,0 C 91 % 1017 hPa 0,0 l/m W 9,0 km/h (2 Bft)
18.09.2006 21:00 13,4 C 95 % 1017 hPa 0,0 l/m S 1,4 km/h (1 Bft)
18.09.2006 22:00 13,5 C 99 % 1017 hPa 0,0 l/m W-SW 4,0 km/h (1 Bft)
18.09.2006 23:00 13,7 C 99 % 1017 hPa 0,0 l/m W-SW 2,1 km/h (1 Bft)
19.09.2006 00:00 13,7 C 100 % 1018 hPa 0,0 l/m S-SW 1,7 km/h (1 Bft)
19.09.2006 01:00 13,7 C 100 % 1017 hPa 2,0 l/m S-SW 1,5 km/h (1 Bft)
19.09.2006 02:00 13,6 C 100 % 1018 hPa 4,0 l/m SW 2,5 km/h (1 Bft)
19.09.2006 03:00 13,5 C 100 % 1017 hPa 0,0 l/m W-SW 2,3 km/h (1 Bft)
19.09.2006 04:00 13,5 C 100 % 1017 hPa 0,0 l/m SW 0,8 km/h (0 Bft)
19.09.2006 05:00 13,4 C 100 % 1017 hPa 0,0 l/m S-SW 0,2 km/h (0 Bft)
19.09.2006 06:00 13,1 C 100 % 1017 hPa 0,0 l/m S 1,7 km/h (1 Bft)
19.09.2006 07:00 13,2 C 100 % 1018 hPa 0,0 l/m S 2,5 km/h (1 Bft)
19.09.2006 08:00 13,6 C 100 % 1018 hPa 0,0 l/m S 6,3 km/h (2 Bft)
19.09.2006 09:00 14,1 C 100 % 1018 hPa 1,0 l/m S 4,4 km/h (1 Bft)
19.09.2006 10:00 14,4 C 100 % 1019 hPa 0,0 l/m SW 0,2 km/h (0 Bft)
19.09.2006 11:00 15,2 C 98 % 1019 hPa 0,0 l/m W 1,6 km/h (1 Bft)
19.09.2006 12:00 16,0 C 91 % 1019 hPa 0,0 l/m W-SW 1,4 km/h (1 Bft)
19.09.2006 13:00 16,9 C 84 % 1019 hPa 0,0 l/m S-SW 1,5 km/h (1 Bft)
19.09.2006 14:00 18,7 C 68 % 1018 hPa 0,0 l/m S-SW 10,4 km/h (2 Bft)
19.09.2006 15:00 16,6 C 85 % 1018 hPa 0,0 l/m W-SW 5,1 km/h (1 Bft)
19.09.2006 16:00 17,5 C 77 % 1018 hPa 0,0 l/m S-SW 7,7 km/h (2 Bft)
19.09.2006 17:00 17,4 C 75 % 1018 hPa 0,0 l/m W-SW 3,4 km/h (1 Bft)
19.09.2006 18:00 16,1 C 86 % 1018 hPa 1,0 l/m W 1,6 km/h (1 Bft)
19.09.2006 19:00 14,9 C 95 % 1019 hPa 0,0 l/m N 0,0 km/h (0 Bft)
19.09.2006 20:00 14,1 C 97 % 1019 hPa 0,0 l/m N 0,1 km/h (0 Bft)
19.09.2006 21:00 13,2 C 97 % 1020 hPa 0,0 l/m N 0,0 km/h (0 Bft)
19.09.2006 22:00 12,2 C 99 % 1020 hPa 0,0 l/m N 0,0 km/h (0 Bft)
19.09.2006 23:00 12,2 C 100 % 1020 hPa 0,0 l/m N 0,0 km/h (0 Bft)
20.09.2006 00:00 12,6 C 100 % 1020 hPa 0,0 l/m N 0,0 km/h (0 Bft)
20.09.2006 01:00 12,7 C 100 % 1020 hPa 0,0 l/m N 0,0 km/h (0 Bft)
20.09.2006 02:00 12,4 C 100 % 1020 hPa 0,0 l/m N 0,0 km/h (0 Bft)
20.09.2006 03:00 12,4 C 100 % 1020 hPa 0,0 l/m N 0,0 km/h (0 Bft)
20.09.2006 04:00 12,2 C 100 % 1020 hPa 0,0 l/m N 0,0 km/h (0 Bft)
20.09.2006 05:00 11,5 C 100 % 1020 hPa 0,0 l/m N 0,0 km/h (0 Bft)
20.09.2006 06:00 10,8 C 100 % 1020 hPa 0,0 l/m N 0,0 km/h (0 Bft)
20.09.2006 07:00 10,2 C 100 % 1020 hPa 0,0 l/m N 0,0 km/h (0 Bft)
20.09.2006 08:00 10,5 C 100 % 1020 hPa 0,0 l/m N 0,0 km/h (0 Bft)
20.09.2006 09:00 12,3 C 100 % 1021 hPa 0,0 l/m S 0,9 km/h (0 Bft)
20.09.2006 10:00 15,4 C 92 % 1021 hPa 0,0 l/m S 4,8 km/h (1 Bft)
20.09.2006 11:00 17,6 C 73 % 1021 hPa 0,0 l/m O 2,2 km/h (1 Bft)
20.09.2006 12:00 18,6 C 63 % 1021 hPa 0,0 l/m N-NO 3,4 km/h (1 Bft)
20.09.2006 13:00 20,2 C 54 % 1021 hPa 0,0 l/m O 4,8 km/h (1 Bft)
20.09.2006 14:00 20,8 C 52 % 1020 hPa 0,0 l/m N-NO 5,5 km/h (1 Bft)
20.09.2006 15:00 21,3 C 49 % 1020 hPa 0,0 l/m N-NO 4,7 km/h (1 Bft)
20.09.2006 16:00 20,6 C 52 % 1020 hPa 0,0 l/m NO 5,1 km/h (1 Bft)
20.09.2006 17:00 20,0 C 55 % 1019 hPa 0,0 l/m N-NO 5,7 km/h (1 Bft)
20.09.2006 18:00 19,5 C 60 % 1019 hPa 0,0 l/m N-NO 2,8 km/h (1 Bft)
20.09.2006 19:00 17,3 C 75 % 1019 hPa 0,0 l/m N 0,0 km/h (0 Bft)
20.09.2006 20:00 15,1 C 86 % 1020 hPa 0,0 l/m N 0,0 km/h (0 Bft)
20.09.2006 21:00 14,0 C 93 % 1020 hPa 0,0 l/m N 0,0 km/h (0 Bft)
20.09.2006 22:00 13,3 C 96 % 1020 hPa 0,0 l/m N 0,0 km/h (0 Bft)
20.09.2006 23:00 12,8 C 98 % 1020 hPa 0,0 l/m N 0,0 km/h (0 Bft)
21.09.2006 00:00 12,4 C 98 % 1020 hPa 0,0 l/m N 0,0 km/h (0 Bft)
21.09.2006 01:00 12,0 C 99 % 1019 hPa 0,0 l/m N 0,0 km/h (0 Bft)
21.09.2006 02:00 11,5 C 100 % 1019 hPa 0,0 l/m N 0,0 km/h (0 Bft)
21.09.2006 03:00 11,0 C 100 % 1019 hPa 0,0 l/m N 0,0 km/h (0 Bft)
21.09.2006 04:00 10,6 C 100 % 1019 hPa 0,0 l/m N 0,0 km/h (0 Bft)
21.09.2006 05:00 10,2 C 100 % 1019 hPa 0,0 l/m N 0,0 km/h (0 Bft)
21.09.2006 06:00 9,8 C 100 % 1019 hPa 0,0 l/m N 0,0 km/h (0 Bft)
21.09.2006 07:00 9,3 C 100 % 1019 hPa 0,0 l/m N 0,0 km/h (0 Bft)
21.09.2006 08:00 9,5 C 100 % 1019 hPa 0,0 l/m N 0,1 km/h (0 Bft)
21.09.2006 09:00 10,6 C 100 % 1020 hPa 0,0 l/m N 0,0 km/h (0 Bft)
21.09.2006 10:00 13,0 C 99 % 1020 hPa 0,0 l/m N 0,1 km/h (0 Bft)
21.09.2006 11:00 15,7 C 85 % 1020 hPa 0,0 l/m N 0,0 km/h (0 Bft)
21.09.2006 12:00 18,4 C 68 % 1019 hPa 0,0 l/m N 0,0 km/h (0 Bft)
21.09.2006 13:00 21,2 C 56 % 1019 hPa 0,0 l/m N 0,0 km/h (0 Bft)
21.09.2006 14:00 23,1 C 48 % 1018 hPa 0,0 l/m N 0,0 km/h (0 Bft)
21.09.2006 15:00 23,6 C 50 % 1017 hPa 0,0 l/m N 0,0 km/h (0 Bft)
21.09.2006 16:00 22,1 C 59 % 1017 hPa 0,0 l/m N 5,3 km/h (1 Bft)
21.09.2006 17:00 21,6 C 60 % 1017 hPa 0,0 l/m N-NO 9,5 km/h (2 Bft)
21.09.2006 18:00 20,8 C 64 % 1016 hPa 0,0 l/m N-NO 6,3 km/h (2 Bft)
21.09.2006 19:00 18,7 C 74 % 1016 hPa 0,0 l/m NW 4,2 km/h (1 Bft)
21.09.2006 20:00 16,7 C 83 % 1017 hPa 0,0 l/m NW 3,7 km/h (1 Bft)
21.09.2006 21:00 15,7 C 87 % 1017 hPa 0,0 l/m NW 5,5 km/h (1 Bft)
21.09.2006 22:00 14,9 C 92 % 1017 hPa 0,0 l/m W-NW 4,1 km/h (1 Bft)
21.09.2006 23:00 14,2 C 95 % 1017 hPa 0,0 l/m W-NW 2,0 km/h (1 Bft)
22.09.2006 00:00 13,5 C 97 % 1016 hPa 0,0 l/m N 0,0 km/h (0 Bft)
22.09.2006 01:00 12,7 C 98 % 1016 hPa 0,0 l/m N 0,0 km/h (0 Bft)
22.09.2006 02:00 12,2 C 100 % 1016 hPa 0,0 l/m NW 4,1 km/h (1 Bft)
22.09.2006 03:00 11,9 C 100 % 1016 hPa 0,0 l/m NW 5,4 km/h (1 Bft)
22.09.2006 04:00 11,4 C 100 % 1016 hPa 0,0 l/m W-NW 1,6 km/h (1 Bft)
22.09.2006 05:00 10,9 C 100 % 1016 hPa 0,0 l/m N 0,0 km/h (0 Bft)
22.09.2006 06:00 10,4 C 100 % 1016 hPa 0,0 l/m N 0,0 km/h (0 Bft)
22.09.2006 07:00 10,2 C 100 % 1016 hPa 0,0 l/m N 0,0 km/h (0 Bft)
22.09.2006 08:00 10,7 C 100 % 1017 hPa 0,0 l/m NW 0,8 km/h (0 Bft)
22.09.2006 09:00 11,2 C 100 % 1017 hPa 0,0 l/m N 0,7 km/h (0 Bft)
22.09.2006 10:00 12,1 C 100 % 1017 hPa 0,0 l/m N 0,1 km/h (0 Bft)
22.09.2006 11:00 13,9 C 100 % 1017 hPa 0,0 l/m N 4,5 km/h (1 Bft)
22.09.2006 12:00 16,2 C 93 % 1016 hPa 0,0 l/m N 6,1 km/h (2 Bft)
22.09.2006 13:00 19,6 C 76 % 1016 hPa 0,0 l/m N 4,6 km/h (1 Bft)
22.09.2006 14:00 22,2 C 66 % 1016 hPa 0,0 l/m N 4,8 km/h (1 Bft)
22.09.2006 15:00 23,0 C 62 % 1015 hPa 0,0 l/m NO 1,6 km/h (1 Bft)
22.09.2006 16:00 22,2 C 67 % 1016 hPa 0,0 l/m N-NW 2,6 km/h (1 Bft)
22.09.2006 17:00 21,4 C 70 % 1016 hPa 0,0 l/m N-NO 6,6 km/h (2 Bft)
22.09.2006 18:00 20,3 C 73 % 1016 hPa 0,0 l/m N-NO 3,5 km/h (1 Bft)
22.09.2006 19:00 18,3 C 82 % 1016 hPa 0,0 l/m NW 4,7 km/h (1 Bft)
22.09.2006 20:00 16,4 C 91 % 1017 hPa 0,0 l/m NW 6,0 km/h (2 Bft)
22.09.2006 21:00 15,2 C 95 % 1017 hPa 0,0 l/m NW 5,1 km/h (1 Bft)
22.09.2006 22:00 14,4 C 98 % 1017 hPa 0,0 l/m NW 3,3 km/h (1 Bft)
22.09.2006 23:00 13,8 C 100 % 1017 hPa 0,0 l/m W-NW 2,2 km/h (1 Bft)
23.09.2006 00:00 13,5 C 100 % 1017 hPa 0,0 l/m W-NW 3,6 km/h (1 Bft)
23.09.2006 01:00 13,2 C 100 % 1016 hPa 0,0 l/m W-NW 0,3 km/h (0 Bft)
23.09.2006 02:00 12,6 C 100 % 1016 hPa 0,0 l/m NW 1,1 km/h (1 Bft)
23.09.2006 03:00 12,5 C 100 % 1016 hPa 0,0 l/m N-NW 4,6 km/h (1 Bft)
23.09.2006 04:00 12,6 C 100 % 1015 hPa 0,0 l/m NW 2,1 km/h (1 Bft)
23.09.2006 05:00 12,3 C 100 % 1015 hPa 0,0 l/m N 3,7 km/h (1 Bft)
23.09.2006 06:00 11,8 C 100 % 1015 hPa 0,0 l/m N-NW 2,5 km/h (1 Bft)
23.09.2006 07:00 11,8 C 100 % 1016 hPa 0,0 l/m N 4,1 km/h (1 Bft)
23.09.2006 08:00 11,9 C 100 % 1016 hPa 0,0 l/m N 1,3 km/h (1 Bft)
23.09.2006 09:00 12,1 C 100 % 1016 hPa 0,0 l/m N-NO 0,4 km/h (0 Bft)
23.09.2006 10:00 12,8 C 100 % 1016 hPa 0,0 l/m N 0,0 km/h (0 Bft)
23.09.2006 11:00 13,7 C 100 % 1016 hPa 0,0 l/m N-NO 2,8 km/h (1 Bft)
23.09.2006 12:00 14,7 C 97 % 1016 hPa 0,0 l/m N-NO 2,0 km/h (1 Bft)
23.09.2006 13:00 16,9 C 84 % 1015 hPa 0,0 l/m N 7,0 km/h (2 Bft)
23.09.2006 14:00 18,4 C 76 % 1015 hPa 0,0 l/m N 7,4 km/h (2 Bft)
23.09.2006 15:00 18,8 C 74 % 1015 hPa 0,0 l/m N 4,1 km/h (1 Bft)
23.09.2006 16:00 17,9 C 79 % 1015 hPa 0,0 l/m N 6,0 km/h (2 Bft)
23.09.2006 17:00 17,2 C 83 % 1014 hPa 0,0 l/m N-NW 6,2 km/h (2 Bft)
23.09.2006 18:00 16,5 C 86 % 1014 hPa 0,0 l/m N-NW 2,7 km/h (1 Bft)
23.09.2006 19:00 15,2 C 94 % 1014 hPa 0,0 l/m NW 4,6 km/h (1 Bft)
23.09.2006 20:00 14,5 C 98 % 1014 hPa 0,0 l/m W-NW 2,5 km/h (1 Bft)
23.09.2006 21:00 13,9 C 100 % 1014 hPa 0,0 l/m W-NW 1,8 km/h (1 Bft)
23.09.2006 22:00 13,9 C 100 % 1014 hPa 0,0 l/m W 5,1 km/h (1 Bft)
23.09.2006 23:00 13,7 C 100 % 1014 hPa 0,0 l/m N 0,0 km/h (0 Bft)
24.09.2006 00:00 12,9 C 100 % 1013 hPa 0,0 l/m N 0,2 km/h (0 Bft)
24.09.2006 01:00 12,1 C 100 % 1013 hPa 0,0 l/m W 1,7 km/h (1 Bft)
24.09.2006 02:00 11,6 C 100 % 1013 hPa 0,0 l/m NW 3,8 km/h (1 Bft)
24.09.2006 03:00 11,3 C 100 % 1012 hPa 0,0 l/m W-NW 2,9 km/h (1 Bft)
24.09.2006 04:00 10,9 C 100 % 1013 hPa 0,0 l/m N 0,0 km/h (0 Bft)
24.09.2006 05:00 10,9 C 100 % 1013 hPa 0,0 l/m N 0,0 km/h (0 Bft)
24.09.2006 06:00 11,0 C 100 % 1013 hPa 0,0 l/m N 0,0 km/h (0 Bft)
24.09.2006 07:00 11,2 C 100 % 1013 hPa 0,0 l/m S-SO 0,2 km/h (0 Bft)
24.09.2006 08:00 11,7 C 100 % 1014 hPa 0,0 l/m N 0,0 km/h (0 Bft)
24.09.2006 09:00 12,5 C 100 % 1014 hPa 0,0 l/m S 0,7 km/h (0 Bft)
24.09.2006 10:00 13,7 C 100 % 1015 hPa 0,0 l/m S 1,4 km/h (1 Bft)
24.09.2006 11:00 15,4 C 100 % 1015 hPa 0,0 l/m S 5,1 km/h (1 Bft)
24.09.2006 12:00 17,2 C 94 % 1014 hPa 0,0 l/m S 7,8 km/h (2 Bft)
24.09.2006 13:00 20,0 C 76 % 1014 hPa 0,0 l/m O 5,1 km/h (1 Bft)
24.09.2006 14:00 22,4 C 65 % 1013 hPa 0,0 l/m N-NO 1,8 km/h (1 Bft)
24.09.2006 15:00 23,4 C 55 % 1013 hPa 0,0 l/m N 7,2 km/h (2 Bft)
24.09.2006 16:00 22,6 C 51 % 1012 hPa 0,0 l/m N 10,4 km/h (2 Bft)
24.09.2006 17:00 21,9 C 54 % 1012 hPa 0,0 l/m N 8,9 km/h (2 Bft)
24.09.2006 18:00 21,0 C 61 % 1011 hPa 0,0 l/m N 6,0 km/h (2 Bft)
24.09.2006 19:00 19,1 C 72 % 1011 hPa 0,0 l/m N 3,4 km/h (1 Bft)
24.09.2006 20:00 17,4 C 82 % 1011 hPa 0,0 l/m N-NO 0,7 km/h (0 Bft)
24.09.2006 21:00 16,2 C 89 % 1011 hPa 0,0 l/m N 0,5 km/h (0 Bft)
24.09.2006 22:00 15,6 C 94 % 1010 hPa 0,0 l/m N 0,0 km/h (0 Bft)
24.09.2006 23:00 15,1 C 96 % 1010 hPa 0,0 l/m W-NW 1,4 km/h (1 Bft)
Min-Datum _ 21.09.06 21.09.06 24.09.06 - - 18.09.06
_ Min-Zeit 07:27 14:34 21:34 - - 00:06
Minimum _ 9,2 C 46 % 1010 hPa - - 0,0 km/h (0 Bft)
Max-Datum _ 21.09.06 18.09.06 20.09.06 19.09.06 - 19.09.06
_ Max-Zeit 15:08 00:00 09:49 02:17 - 14:19
Maximum _ 24,0 C 100 % 1021 hPa 4,0 l/m - 21,2 km/h
S-SW (4 Bft)
Durchschnitt _ 15,0 C 90 % 1017 hPa #9,0 l/m NW 2,9 km/h (1 Bft)

Durchschnitt Minimum Temp.14,6 C
Durchschnitt Maximum Temp.15,5 C